createdAt,value
2023-05-15T00:02:21.212Z,11.30
2023-05-15T00:04:48.161Z,13.10
2023-05-15T00:07:15.034Z,11.30
2023-05-15T00:09:41.838Z,11.40
2023-05-15T00:12:09.099Z,11.20
2023-05-15T00:14:35.892Z,11.10
2023-05-15T00:17:03.229Z,11.10
2023-05-15T00:19:30.021Z,11.10
2023-05-15T00:21:56.970Z,11.10
2023-05-15T00:24:23.828Z,11.10
2023-05-15T00:26:50.688Z,11.10
2023-05-15T00:29:17.556Z,11.10
2023-05-15T00:31:44.544Z,11.10
2023-05-15T00:34:11.356Z,11.20
2023-05-15T00:36:38.175Z,11.00
2023-05-15T00:39:05.186Z,11.00
2023-05-15T00:41:33.507Z,11.00
2023-05-15T00:44:02.700Z,11.00
2023-05-15T00:46:32.669Z,10.90
2023-05-15T00:49:00.715Z,10.90
2023-05-15T00:51:27.474Z,12.30
2023-05-15T00:53:56.952Z,10.80
2023-05-15T00:56:25.495Z,10.80
2023-05-15T00:58:54.124Z,10.70
2023-05-15T01:01:21.928Z,10.70
2023-05-15T01:03:48.766Z,10.80
2023-05-15T01:06:15.753Z,10.80
2023-05-15T01:08:50.499Z,12.10
2023-05-15T01:11:18.189Z,10.60
2023-05-15T01:13:45.059Z,10.60
2023-05-15T01:16:11.943Z,10.60
2023-05-15T01:18:39.017Z,10.50
2023-05-15T01:21:05.908Z,10.50
2023-05-15T01:23:45.248Z,10.50
2023-05-15T01:26:33.623Z,10.50
2023-05-15T01:29:20.790Z,10.40
2023-05-15T01:31:54.100Z,10.40
2023-05-15T01:34:27.594Z,10.40
2023-05-15T01:37:00.205Z,10.40
2023-05-15T01:39:29.023Z,11.40
2023-05-15T01:42:02.733Z,10.40
2023-05-15T01:44:32.871Z,10.30
2023-05-15T01:47:06.683Z,11.50
2023-05-15T01:49:35.875Z,10.30
2023-05-15T01:52:13.537Z,10.30
2023-05-15T01:54:40.903Z,10.30
2023-05-15T01:57:09.856Z,10.30
2023-05-15T01:59:38.350Z,10.20
2023-05-15T02:02:06.274Z,10.20
2023-05-15T02:04:34.200Z,10.20
2023-05-15T02:07:03.612Z,10.10
2023-05-15T02:09:32.192Z,10.00
2023-05-15T02:12:01.570Z,10.00
2023-05-15T02:14:32.321Z,10.00
2023-05-15T02:16:59.249Z,10.00
2023-05-15T02:19:26.366Z,9.90
2023-05-15T02:21:53.140Z,9.90
2023-05-15T02:24:19.939Z,9.90
2023-05-15T02:27:10.579Z,9.80
2023-05-15T02:30:03.507Z,9.90
2023-05-15T02:32:39.296Z,9.80
2023-05-15T02:35:30.443Z,9.80
2023-05-15T02:38:00.608Z,9.80
2023-05-15T02:40:28.900Z,9.80
2023-05-15T02:42:57.037Z,9.80
2023-05-15T02:45:25.223Z,9.80
2023-05-15T02:47:52.922Z,9.80
2023-05-15T02:50:20.063Z,10.40
2023-05-15T02:52:47.015Z,9.80
2023-05-15T02:55:13.826Z,9.80
2023-05-15T02:57:40.631Z,9.80
2023-05-15T03:00:13.671Z,9.70
2023-05-15T03:02:40.555Z,9.80
2023-05-15T03:05:07.766Z,9.70
2023-05-15T03:07:34.789Z,9.70
2023-05-15T03:10:01.614Z,9.70
2023-05-15T03:12:28.525Z,9.80
2023-05-15T03:14:55.387Z,9.90
2023-05-15T03:17:23.994Z,9.80
2023-05-15T03:19:51.285Z,9.80
2023-05-15T03:22:18.041Z,9.80
2023-05-15T03:24:45.362Z,9.90
2023-05-15T03:27:12.179Z,9.90
2023-05-15T03:29:39.221Z,9.90
2023-05-15T03:32:06.206Z,9.90
2023-05-15T03:34:33.037Z,10.00
2023-05-15T03:37:00.293Z,10.00
2023-05-15T03:39:27.324Z,10.10
2023-05-15T03:41:54.214Z,11.40
2023-05-15T03:44:21.071Z,10.20
2023-05-15T03:46:48.061Z,10.10
2023-05-15T03:49:14.906Z,10.20
2023-05-15T03:51:41.833Z,12.00
2023-05-15T03:54:08.856Z,10.30
2023-05-15T03:56:35.973Z,10.40
2023-05-15T03:59:02.748Z,10.40
2023-05-15T04:01:29.705Z,10.50
2023-05-15T04:03:56.580Z,10.50
2023-05-15T04:06:23.500Z,10.60
2023-05-15T04:08:50.549Z,10.70
2023-05-15T04:11:17.475Z,10.80
2023-05-15T04:13:44.469Z,10.80
2023-05-15T04:16:11.204Z,10.90
2023-05-15T04:18:37.923Z,11.00
2023-05-15T04:21:04.643Z,11.00
2023-05-15T04:23:31.400Z,11.10
2023-05-15T04:25:58.214Z,11.40
2023-05-15T04:28:24.943Z,12.00
2023-05-15T04:30:51.981Z,11.30
2023-05-15T04:33:18.713Z,11.40
2023-05-15T04:35:45.441Z,11.50
2023-05-15T04:38:12.314Z,11.50
2023-05-15T04:40:38.980Z,11.60
2023-05-15T04:43:05.908Z,11.60
2023-05-15T04:45:32.686Z,11.70
2023-05-15T04:47:59.710Z,11.80
2023-05-15T04:50:26.928Z,11.90
2023-05-15T04:52:54.420Z,12.00
2023-05-15T04:55:21.342Z,12.10
2023-05-15T04:57:48.206Z,13.60
2023-05-15T05:00:15.793Z,12.20
2023-05-15T05:02:45.408Z,12.20
2023-05-15T05:05:14.654Z,12.30
2023-05-15T05:07:42.421Z,12.40
2023-05-15T05:10:09.883Z,13.90
2023-05-15T05:12:36.563Z,12.60
2023-05-15T05:15:03.643Z,12.70
2023-05-15T05:17:31.663Z,12.80
2023-05-15T05:19:58.390Z,13.00
2023-05-15T05:22:25.207Z,13.60
2023-05-15T05:24:51.958Z,13.20
2023-05-15T05:27:18.615Z,13.40
2023-05-15T05:29:46.149Z,14.40
2023-05-15T05:32:12.868Z,14.70
2023-05-15T05:34:39.683Z,13.70
2023-05-15T05:37:06.580Z,13.90
2023-05-15T05:39:33.275Z,14.00
2023-05-15T05:41:59.933Z,14.20
2023-05-15T05:44:26.582Z,14.50
2023-05-15T05:46:53.287Z,15.30
2023-05-15T05:49:20.004Z,14.70
2023-05-15T05:51:47.170Z,14.70
2023-05-15T05:54:15.176Z,14.90
2023-05-15T05:56:42.629Z,15.10
2023-05-15T05:59:09.847Z,15.30
2023-05-15T06:01:36.666Z,15.40
2023-05-15T06:04:03.491Z,15.70
2023-05-15T06:06:30.532Z,15.90
2023-05-15T06:08:57.192Z,16.10
2023-05-15T06:11:25.316Z,16.20
2023-05-15T06:13:52.698Z,16.40
2023-05-15T06:16:19.460Z,16.60
2023-05-15T06:18:46.240Z,16.70
2023-05-15T06:21:12.969Z,16.80
2023-05-15T06:23:39.625Z,17.10
2023-05-15T06:26:06.395Z,17.10
2023-05-15T06:28:33.150Z,17.20
2023-05-15T06:30:59.977Z,17.30
2023-05-15T06:33:26.899Z,17.50
2023-05-15T06:35:53.929Z,17.60
2023-05-15T06:38:20.647Z,17.80
2023-05-15T06:40:47.400Z,17.90
2023-05-15T06:43:14.192Z,18.00
2023-05-15T06:45:40.842Z,18.10
2023-05-15T06:48:07.775Z,18.20
2023-05-15T06:50:34.430Z,18.30
2023-05-15T06:53:01.285Z,18.50
2023-05-15T06:55:28.181Z,18.70
2023-05-15T06:57:54.933Z,18.80
2023-05-15T07:00:21.725Z,19.00
2023-05-15T07:02:48.548Z,19.10
2023-05-15T07:05:15.420Z,19.30
2023-05-15T07:07:42.790Z,19.40
2023-05-15T07:10:09.751Z,19.60
2023-05-15T07:12:36.586Z,19.70
2023-05-15T07:15:03.684Z,19.70
2023-05-15T07:17:32.362Z,19.90
2023-05-15T07:19:59.366Z,20.00
2023-05-15T07:22:29.312Z,20.10
2023-05-15T07:24:56.180Z,20.30
2023-05-15T07:27:22.917Z,20.40
2023-05-15T07:29:49.630Z,20.70
2023-05-15T07:32:16.377Z,20.70
2023-05-15T07:34:43.073Z,20.90
2023-05-15T07:37:09.970Z,21.00
2023-05-15T07:39:36.828Z,21.20
2023-05-15T07:42:05.276Z,21.40
2023-05-15T07:44:32.080Z,21.40
2023-05-15T07:46:59.232Z,21.50
2023-05-15T07:49:25.990Z,21.50
2023-05-15T07:51:52.850Z,21.60
2023-05-15T07:54:19.615Z,21.50
2023-05-15T07:56:46.496Z,21.60
2023-05-15T07:59:13.308Z,21.70
2023-05-15T08:01:40.163Z,21.80
2023-05-15T08:04:09.286Z,21.90
2023-05-15T08:06:42.797Z,21.90
2023-05-15T08:09:11.573Z,22.00
2023-05-15T08:11:38.366Z,22.00
2023-05-15T08:14:05.346Z,22.10
2023-05-15T08:16:32.534Z,22.10
2023-05-15T08:19:01.639Z,22.30
2023-05-15T08:21:31.985Z,22.40
2023-05-15T08:24:00.064Z,22.50
2023-05-15T08:26:33.073Z,22.70
2023-05-15T08:28:59.961Z,22.70
2023-05-15T08:31:26.793Z,22.80
2023-05-15T08:33:53.711Z,22.90
2023-05-15T08:36:24.022Z,22.80
2023-05-15T08:38:50.996Z,22.80
2023-05-15T08:41:40.048Z,22.80
2023-05-15T08:44:12.880Z,22.80
2023-05-15T08:46:40.131Z,22.80
2023-05-15T08:49:42.424Z,22.90
2023-05-15T08:52:09.462Z,23.00
2023-05-15T08:54:36.542Z,23.00
2023-05-15T08:57:03.595Z,23.00
2023-05-15T08:59:30.605Z,23.00
2023-05-15T09:01:57.442Z,23.00
2023-05-15T09:04:24.183Z,23.00
2023-05-15T09:06:51.385Z,23.10
2023-05-15T09:09:20.674Z,23.20
2023-05-15T09:11:49.315Z,23.20
2023-05-15T09:14:16.063Z,23.20
2023-05-15T09:16:43.522Z,23.20
2023-05-15T09:19:11.340Z,23.10
2023-05-15T09:21:38.237Z,23.00
2023-05-15T09:24:23.435Z,23.00
2023-05-15T09:27:04.511Z,23.10
2023-05-15T09:29:32.264Z,23.20
2023-05-15T09:32:07.872Z,23.30
2023-05-15T09:34:39.769Z,23.30
2023-05-15T09:37:08.804Z,23.30
2023-05-15T09:39:43.674Z,23.40
2023-05-15T09:42:15.875Z,23.50
2023-05-15T09:44:43.771Z,23.80
2023-05-15T09:47:12.228Z,24.10
2023-05-15T09:49:39.553Z,24.20
2023-05-15T09:52:10.146Z,24.30
2023-05-15T09:54:37.698Z,24.60
2023-05-15T09:57:12.595Z,24.80
2023-05-15T09:59:50.008Z,25.10
2023-05-15T10:02:32.104Z,25.30
2023-05-15T10:04:59.255Z,25.40
2023-05-15T10:07:31.469Z,25.50
2023-05-15T10:09:59.020Z,25.30
2023-05-15T10:12:26.846Z,25.40
2023-05-15T10:14:57.086Z,25.50
2023-05-15T10:17:24.320Z,25.40
2023-05-15T10:19:58.275Z,25.20
2023-05-15T10:22:29.288Z,25.00
2023-05-15T10:25:08.819Z,25.00
2023-05-15T10:27:37.445Z,24.90
2023-05-15T10:30:04.930Z,24.70
2023-05-15T10:32:33.156Z,24.50
2023-05-15T10:35:00.231Z,24.40
2023-05-15T10:37:29.043Z,24.30
2023-05-15T10:39:57.512Z,24.10
2023-05-15T10:42:26.679Z,24.10
2023-05-15T10:44:59.843Z,24.10
2023-05-15T10:47:27.556Z,24.10
2023-05-15T10:49:54.365Z,24.30
2023-05-15T10:52:21.470Z,24.30
2023-05-15T10:54:48.228Z,24.70
2023-05-15T10:57:15.462Z,24.40
2023-05-15T10:59:42.408Z,24.40
2023-05-15T11:02:21.527Z,24.60
2023-05-15T11:04:48.545Z,24.80
2023-05-15T11:07:17.976Z,24.90
2023-05-15T11:09:44.712Z,25.00
2023-05-15T11:12:11.886Z,25.30
2023-05-15T11:14:39.729Z,25.60
2023-05-15T11:17:08.621Z,25.70
2023-05-15T11:19:36.854Z,25.60
2023-05-15T11:22:16.720Z,25.60
2023-05-15T11:25:09.147Z,25.50
2023-05-15T11:27:43.568Z,25.30
2023-05-15T11:30:11.681Z,25.20
2023-05-15T11:32:47.543Z,25.20
2023-05-15T11:35:24.811Z,25.20
2023-05-15T11:38:04.597Z,25.20
2023-05-15T11:40:31.345Z,25.40
2023-05-15T11:43:02.529Z,25.50
2023-05-15T11:45:39.688Z,25.30
2023-05-15T11:48:11.271Z,25.30
2023-05-15T11:50:38.575Z,25.30
2023-05-15T11:53:06.984Z,25.40
2023-05-15T11:55:35.643Z,25.60
2023-05-15T11:58:02.882Z,25.60
2023-05-15T12:00:29.788Z,25.60
2023-05-15T12:02:57.252Z,25.40
2023-05-15T12:05:24.196Z,25.10
2023-05-15T12:07:51.121Z,25.00
2023-05-15T12:10:17.952Z,24.90
2023-05-15T12:12:48.668Z,24.90
2023-05-15T12:15:17.362Z,25.10
2023-05-15T12:17:45.385Z,25.30
2023-05-15T12:20:16.384Z,25.30
2023-05-15T12:22:43.159Z,25.30
2023-05-15T12:25:11.772Z,25.30
2023-05-15T12:27:40.286Z,25.40
2023-05-15T12:30:08.129Z,25.50
2023-05-15T12:32:36.936Z,25.70
2023-05-15T12:35:04.995Z,26.00
2023-05-15T12:37:35.716Z,26.40
2023-05-15T12:40:10.330Z,26.60
2023-05-15T12:42:45.165Z,26.70
2023-05-15T12:45:16.517Z,26.60
2023-05-15T12:47:44.783Z,26.30
2023-05-15T12:50:16.782Z,26.10
2023-05-15T12:52:54.444Z,26.10
2023-05-15T12:55:26.932Z,26.10
2023-05-15T12:57:56.430Z,26.00
2023-05-15T13:00:23.768Z,25.90
2023-05-15T13:02:55.224Z,25.80
2023-05-15T13:05:26.550Z,25.70
2023-05-15T13:07:53.929Z,25.50
2023-05-15T13:10:25.352Z,25.40
2023-05-15T13:12:57.945Z,25.30
2023-05-15T13:15:33.339Z,25.30
2023-05-15T13:18:01.879Z,25.40
2023-05-15T13:20:32.279Z,25.30
2023-05-15T13:22:59.008Z,25.20
2023-05-15T13:25:25.795Z,25.20
2023-05-15T13:27:52.807Z,25.10
2023-05-15T13:30:19.717Z,25.10
2023-05-15T13:32:47.424Z,25.20
2023-05-15T13:35:14.098Z,25.30
2023-05-15T13:37:40.832Z,25.70
2023-05-15T13:40:12.428Z,26.00
2023-05-15T13:42:41.300Z,26.40
2023-05-15T13:45:15.532Z,26.70
2023-05-15T13:47:43.391Z,26.70
2023-05-15T13:50:12.183Z,26.50
2023-05-15T13:52:39.715Z,26.50
2023-05-15T13:55:07.189Z,26.60
2023-05-15T13:57:33.898Z,26.50
2023-05-15T14:00:00.910Z,26.40
2023-05-15T14:02:28.724Z,26.40
2023-05-15T14:04:55.736Z,26.60
2023-05-15T14:07:24.269Z,26.50
2023-05-15T14:09:51.624Z,26.40
2023-05-15T14:12:18.511Z,26.30
2023-05-15T14:14:46.957Z,26.10
2023-05-15T14:17:14.904Z,25.70
2023-05-15T14:19:41.876Z,25.30
2023-05-15T14:22:08.964Z,24.80
2023-05-15T14:24:35.815Z,24.50
2023-05-15T14:27:02.682Z,24.20
2023-05-15T14:29:29.534Z,24.00
2023-05-15T14:31:56.303Z,23.90
2023-05-15T14:34:23.604Z,23.80
2023-05-15T14:36:50.822Z,23.80
2023-05-15T14:39:18.616Z,23.70
2023-05-15T14:41:46.181Z,23.70
2023-05-15T14:44:12.992Z,23.80
2023-05-15T14:46:42.793Z,23.80
2023-05-15T14:49:09.614Z,23.60
2023-05-15T14:51:36.347Z,23.30
2023-05-15T14:54:05.056Z,23.10
2023-05-15T14:56:32.192Z,23.00
2023-05-15T14:58:58.982Z,23.00
2023-05-15T15:01:25.787Z,22.90
2023-05-15T15:03:52.870Z,22.80
2023-05-15T15:06:19.724Z,22.60
2023-05-15T15:08:46.836Z,22.50
2023-05-15T15:11:13.890Z,22.30
2023-05-15T15:13:40.799Z,22.30
2023-05-15T15:16:08.278Z,22.30
2023-05-15T15:18:35.203Z,22.80
2023-05-15T15:21:01.920Z,23.10
2023-05-15T15:23:28.635Z,23.20
2023-05-15T15:25:55.280Z,23.10
2023-05-15T15:28:22.082Z,23.20
2023-05-15T15:30:48.849Z,23.20
2023-05-15T15:33:15.517Z,23.10
2023-05-15T15:35:42.283Z,23.00
2023-05-15T15:38:11.579Z,22.80
2023-05-15T15:40:38.317Z,22.70
2023-05-15T15:43:05.027Z,22.60
2023-05-15T15:45:31.872Z,22.50
2023-05-15T15:47:58.647Z,22.40
2023-05-15T15:50:25.607Z,22.10
2023-05-15T15:52:52.471Z,21.80
2023-05-15T15:55:19.173Z,21.70
2023-05-15T15:57:45.923Z,21.40
2023-05-15T16:00:13.364Z,21.20
2023-05-15T16:02:43.353Z,20.90
2023-05-15T16:05:10.251Z,20.60
2023-05-15T16:07:36.988Z,20.40
2023-05-15T16:10:12.227Z,20.10
2023-05-15T16:12:40.728Z,19.90
2023-05-15T16:15:20.992Z,19.70
2023-05-15T16:17:51.643Z,19.60
2023-05-15T16:20:18.591Z,19.50
2023-05-15T16:22:45.293Z,19.30
2023-05-15T16:25:11.964Z,19.30
2023-05-15T16:27:38.727Z,19.10
2023-05-15T16:30:05.993Z,19.00
2023-05-15T16:32:34.106Z,18.90
2023-05-15T16:35:01.108Z,18.80
2023-05-15T16:37:27.819Z,18.60
2023-05-15T16:39:54.515Z,18.60
2023-05-15T16:42:21.220Z,18.60
2023-05-15T16:44:47.919Z,18.30
2023-05-15T16:47:14.842Z,18.30
2023-05-15T16:49:44.141Z,18.20
2023-05-15T16:52:12.049Z,18.10
2023-05-15T16:54:41.511Z,18.00
2023-05-15T16:57:08.233Z,18.00
2023-05-15T16:59:35.052Z,17.90
2023-05-15T17:02:01.798Z,18.70
2023-05-15T17:04:31.441Z,17.90
2023-05-15T17:06:59.516Z,17.80
2023-05-15T17:09:26.393Z,17.80
2023-05-15T17:11:53.106Z,17.80
2023-05-15T17:14:19.788Z,17.80
2023-05-15T17:16:46.611Z,18.40
2023-05-15T17:19:13.967Z,17.70
2023-05-15T17:21:40.936Z,17.70
2023-05-15T17:24:07.711Z,17.70
2023-05-15T17:26:34.433Z,17.60
2023-05-15T17:29:01.280Z,17.60
2023-05-15T17:31:29.528Z,17.50
2023-05-15T17:33:56.592Z,17.50
2023-05-15T17:36:23.301Z,19.00
2023-05-15T17:38:49.984Z,17.80
2023-05-15T17:41:16.689Z,17.40
2023-05-15T17:43:43.551Z,17.30
2023-05-15T17:46:10.383Z,18.80
2023-05-15T17:48:37.078Z,17.20
2023-05-15T17:51:03.785Z,17.20
2023-05-15T17:53:30.770Z,17.30
2023-05-15T17:55:57.795Z,17.60
2023-05-15T17:58:24.545Z,17.10
2023-05-15T18:00:52.015Z,18.70
2023-05-15T18:03:18.817Z,17.10
2023-05-15T18:05:49.403Z,17.00
2023-05-15T18:08:16.305Z,18.60
2023-05-15T18:10:42.986Z,17.00
2023-05-15T18:13:09.746Z,16.90
2023-05-15T18:15:36.502Z,16.90
2023-05-15T18:18:03.679Z,16.80
2023-05-15T18:20:30.482Z,16.70
2023-05-15T18:22:57.177Z,18.50
2023-05-15T18:25:24.041Z,16.70
2023-05-15T18:27:50.896Z,16.70
2023-05-15T18:30:17.641Z,17.70
2023-05-15T18:32:44.399Z,16.60
2023-05-15T18:35:11.357Z,16.50
2023-05-15T18:37:38.070Z,16.50
2023-05-15T18:40:05.344Z,16.50
2023-05-15T18:42:32.614Z,16.40
2023-05-15T18:44:59.432Z,16.40
2023-05-15T18:47:27.236Z,16.40
2023-05-15T18:49:53.952Z,16.30
2023-05-15T18:52:21.445Z,16.30
2023-05-15T18:54:48.781Z,16.30
2023-05-15T18:57:15.602Z,16.50
2023-05-15T18:59:42.309Z,16.10
2023-05-15T19:02:09.843Z,16.10
2023-05-15T19:04:36.695Z,16.10
2023-05-15T19:07:03.441Z,17.30
2023-05-15T19:09:30.159Z,16.00
2023-05-15T19:11:58.341Z,16.00
2023-05-15T19:14:25.088Z,16.00
2023-05-15T19:16:52.162Z,15.90
2023-05-15T19:19:19.126Z,15.90
2023-05-15T19:21:47.512Z,15.80
2023-05-15T19:24:14.228Z,15.70
2023-05-15T19:26:41.018Z,15.60
2023-05-15T19:29:07.706Z,15.60
2023-05-15T19:31:34.625Z,15.80
2023-05-15T19:34:01.418Z,17.20
2023-05-15T19:36:28.175Z,15.50
2023-05-15T19:38:55.219Z,17.20
2023-05-15T19:41:22.657Z,15.50
2023-05-15T19:43:50.899Z,15.50
2023-05-15T19:46:18.657Z,15.40
2023-05-15T19:48:46.097Z,15.40
2023-05-15T19:51:13.025Z,15.30
2023-05-15T19:53:39.780Z,15.30
2023-05-15T19:56:06.670Z,15.30
2023-05-15T19:58:33.636Z,15.30
2023-05-15T20:01:00.356Z,15.20
2023-05-15T20:03:32.843Z,15.20
2023-05-15T20:06:01.425Z,15.20
2023-05-15T20:08:29.069Z,15.20
2023-05-15T20:10:56.550Z,15.20
2023-05-15T20:13:23.618Z,15.20
2023-05-15T20:15:57.441Z,15.10
2023-05-15T20:18:25.164Z,15.10
2023-05-15T20:20:53.159Z,16.80
2023-05-15T20:23:20.898Z,15.10
2023-05-15T20:25:49.027Z,15.10
2023-05-15T20:28:17.583Z,15.10
2023-05-15T20:30:47.186Z,16.40
2023-05-15T20:33:14.420Z,15.10
2023-05-15T20:35:42.735Z,15.40
2023-05-15T20:38:10.514Z,16.60
2023-05-15T20:40:37.695Z,15.00
2023-05-15T20:43:04.930Z,14.90
2023-05-15T20:45:34.753Z,16.30
2023-05-15T20:48:01.812Z,14.90
2023-05-15T20:50:28.743Z,14.90
2023-05-15T20:52:55.757Z,14.90
2023-05-15T20:55:22.648Z,14.90
2023-05-15T20:57:50.655Z,14.90
2023-05-15T21:00:18.339Z,14.90
2023-05-15T21:02:46.771Z,14.90
2023-05-15T21:05:13.823Z,14.90
2023-05-15T21:07:40.774Z,14.90
2023-05-15T21:10:08.071Z,14.90
2023-05-15T21:12:35.104Z,14.90
2023-05-15T21:15:02.699Z,14.90
2023-05-15T21:17:29.395Z,14.90
2023-05-15T21:19:58.454Z,14.90
2023-05-15T21:22:25.206Z,14.80
2023-05-15T21:24:52.067Z,15.60
2023-05-15T21:27:18.971Z,14.70
2023-05-15T21:29:46.572Z,15.70
2023-05-15T21:32:13.270Z,14.80
2023-05-15T21:34:40.032Z,14.80
2023-05-15T21:37:06.737Z,14.70
2023-05-15T21:39:33.501Z,14.70
2023-05-15T21:42:00.186Z,14.70
2023-05-15T21:44:26.880Z,14.60
2023-05-15T21:46:53.769Z,15.00
2023-05-15T21:49:20.626Z,14.50
2023-05-15T21:51:47.324Z,14.50
2023-05-15T21:54:14.167Z,14.50
2023-05-15T21:56:41.161Z,14.40
2023-05-15T21:59:08.067Z,14.40
2023-05-15T22:01:36.249Z,14.30
2023-05-15T22:04:03.174Z,14.30
2023-05-15T22:06:30.048Z,14.30
2023-05-15T22:08:57.516Z,14.20
2023-05-15T22:11:24.307Z,15.60
2023-05-15T22:13:51.072Z,14.10
2023-05-15T22:16:18.019Z,14.20
2023-05-15T22:18:45.333Z,14.00
2023-05-15T22:21:12.089Z,14.00
2023-05-15T22:23:38.788Z,15.10
2023-05-15T22:26:05.741Z,14.00
2023-05-15T22:28:32.439Z,13.90
2023-05-15T22:30:59.163Z,13.90
2023-05-15T22:33:25.972Z,13.90
2023-05-15T22:35:53.649Z,13.90
2023-05-15T22:38:21.014Z,13.90
2023-05-15T22:40:51.511Z,13.90
2023-05-15T22:43:18.325Z,13.90
2023-05-15T22:45:45.241Z,13.80
2023-05-15T22:48:12.115Z,13.80
2023-05-15T22:50:38.875Z,13.80
2023-05-15T22:53:05.689Z,13.80
2023-05-15T22:55:32.641Z,15.30
2023-05-15T22:57:59.372Z,13.70
2023-05-15T23:00:26.444Z,14.80
2023-05-15T23:02:55.313Z,13.60
2023-05-15T23:05:22.993Z,13.50
2023-05-15T23:07:50.159Z,13.50
2023-05-15T23:10:16.983Z,14.60
2023-05-15T23:12:43.725Z,13.30
2023-05-15T23:15:10.733Z,13.30
2023-05-15T23:17:38.004Z,13.30
2023-05-15T23:20:06.817Z,14.50
2023-05-15T23:22:33.638Z,13.20
2023-05-15T23:25:00.802Z,13.10
2023-05-15T23:27:27.510Z,13.10
2023-05-15T23:29:54.278Z,13.00
2023-05-15T23:32:21.055Z,13.00
2023-05-15T23:34:47.827Z,13.10
2023-05-15T23:37:14.765Z,12.90
2023-05-15T23:39:41.451Z,12.90
2023-05-15T23:42:10.038Z,13.80
2023-05-15T23:44:36.826Z,12.80
2023-05-15T23:47:04.471Z,13.70
2023-05-15T23:49:32.837Z,12.70
2023-05-15T23:51:59.682Z,12.90
2023-05-15T23:54:26.363Z,13.20
2023-05-15T23:56:53.270Z,12.50
2023-05-15T23:59:19.957Z,12.90
